Time;durP1;ratioP1;P1;durP2;ratioP2;P2;SDS_P1;SDS_P2;PMS_P1;PMS_P2;Temp;Humidity;BMP_temperature;BMP_pressure;BME280_temperature;BME280_humidity;BME280_pressure;Samples;Min_cycle;Max_cycle;Signal;HPM_P1;HPM_P2
2022/05/11 00:00:50;;;;;;;26.53;17.67;;;13.20;99.90;;;;;;5125470;27;20461;-81
2022/05/11 00:03:20;;;;;;;20.87;16.80;;;13.20;99.90;;;;;;5124522;27;20475;-78
2022/05/11 00:05:48;;;;;;;23.20;17.77;;;13.20;99.90;;;;;;5124050;27;20587;-81
2022/05/11 00:08:18;;;;;;;24.53;17.80;;;13.20;99.90;;;;;;5124951;27;20451;-79
2022/05/11 00:10:45;;;;;;;25.50;18.10;;;13.20;99.90;;;;;;5124198;27;21110;-80
2022/05/11 00:13:13;;;;;;;29.33;19.07;;;13.20;99.90;;;;;;5126410;27;20447;-80
2022/05/11 00:15:41;;;;;;;28.10;19.70;;;13.20;99.90;;;;;;5126487;27;20941;-82
2022/05/11 00:18:10;;;;;;;24.30;19.87;;;13.20;99.90;;;;;;5126249;27;20440;-77
2022/05/11 00:20:38;;;;;;;26.87;20.87;;;13.20;99.90;;;;;;5126250;27;20512;-79
2022/05/11 00:23:07;;;;;;;24.70;18.80;;;13.20;99.90;;;;;;5125447;27;20483;-81
2022/05/11 00:25:36;;;;;;;28.73;20.47;;;13.20;99.90;;;;;;5125100;27;20482;-77
2022/05/11 00:28:04;;;;;;;29.30;21.20;;;13.30;99.90;;;;;;5125341;27;20444;-78
2022/05/11 00:30:32;;;;;;;29.67;20.97;;;13.30;99.90;;;;;;5128012;27;20453;-80
2022/05/11 00:33:01;;;;;;;37.57;22.13;;;13.30;99.90;;;;;;5129107;27;20453;-78
2022/05/11 00:35:30;;;;;;;27.50;20.80;;;13.30;99.90;;;;;;5125551;27;20433;-79
2022/05/11 00:37:58;;;;;;;29.33;20.17;;;13.40;99.90;;;;;;5127050;27;20497;-81
2022/05/11 00:40:26;;;;;;;29.80;20.47;;;13.40;99.90;;;;;;5126379;27;20986;-80
2022/05/11 00:42:55;;;;;;;27.70;20.87;;;13.50;99.90;;;;;;5127825;27;20482;-81
2022/05/11 00:45:23;;;;;;;29.47;20.80;;;13.50;99.90;;;;;;5128862;27;20479;-79
2022/05/11 00:47:54;;;;;;;36.13;22.03;;;13.50;99.90;;;;;;5132245;27;20432;-82
2022/05/11 00:50:25;;;;;;;27.77;20.20;;;13.50;99.90;;;;;;5123978;27;20417;-80
2022/05/11 00:52:56;;;;;;;27.30;20.07;;;13.40;99.90;;;;;;5124295;27;20471;-80
2022/05/11 00:55:26;;;;;;;28.57;20.67;;;13.50;99.90;;;;;;5124582;27;20829;-82
2022/05/11 00:58:02;;;;;;;26.50;19.57;;;13.40;99.90;;;;;;5126308;27;20927;-81
2022/05/11 01:00:30;;;;;;;27.70;20.07;;;13.40;99.90;;;;;;5125506;27;20440;-81
2022/05/11 01:03:04;;;;;;;29.17;21.20;;;13.40;99.90;;;;;;5128383;27;20504;-78
2022/05/11 01:05:31;;;;;;;32.47;21.27;;;13.40;99.90;;;;;;5129526;27;20476;-80
2022/05/11 01:08:00;;;;;;;34.43;21.87;;;13.40;99.90;;;;;;5128986;27;20528;-82
2022/05/11 01:10:32;;;;;;;35.13;21.70;;;13.40;99.90;;;;;;5128460;27;20447;-80
2022/05/11 01:13:08;;;;;;;30.50;21.43;;;13.40;99.90;;;;;;5127811;27;20456;-80
2022/05/11 01:15:37;;;;;;;29.13;21.33;;;13.40;99.90;;;;;;5127642;27;20432;-82
2022/05/11 01:18:08;;;;;;;27.97;20.80;;;13.40;99.90;;;;;;5129078;27;21133;-84
2022/05/11 01:20:37;;;;;;;28.60;22.33;;;13.40;99.90;;;;;;5129252;27;20441;-81
2022/05/11 01:23:14;;;;;;;28.40;20.90;;;13.40;99.90;;;;;;5128939;27;20457;-82
2022/05/11 01:25:43;;;;;;;28.87;21.87;;;13.40;99.90;;;;;;5128914;27;20467;-82
2022/05/11 01:28:13;;;;;;;32.27;22.23;;;13.30;99.90;;;;;;5128256;27;20464;-82
2022/05/11 01:30:44;;;;;;;28.27;21.13;;;13.40;99.90;;;;;;5131385;27;20441;-81
2022/05/11 01:33:17;;;;;;;31.43;23.10;;;13.40;99.90;;;;;;5132606;27;20467;-83
2022/05/11 01:35:51;;;;;;;26.43;21.70;;;13.40;99.90;;;;;;5129885;27;20830;-83
2022/05/11 01:38:29;;;;;;;26.80;20.97;;;13.30;99.90;;;;;;5127927;27;20442;-81
2022/05/11 01:40:58;;;;;;;31.27;22.10;;;13.40;99.90;;;;;;5132305;27;20424;-79
2022/05/11 01:43:29;;;;;;;28.40;22.80;;;13.40;99.90;;;;;;5151246;27;20452;-81
2022/05/11 01:45:58;;;;;;;29.20;20.60;;;13.40;99.90;;;;;;5148647;27;20491;-81
2022/05/11 01:48:27;;;;;;;27.40;22.03;;;13.40;99.90;;;;;;5139868;27;20513;-79
2022/05/11 01:50:56;;;;;;;29.43;20.90;;;13.40;99.90;;;;;;5125505;27;20862;-83
2022/05/11 01:53:24;;;;;;;29.50;22.40;;;13.40;99.90;;;;;;5134895;27;20438;-82
2022/05/11 01:55:52;;;;;;;30.73;23.43;;;13.50;99.90;;;;;;5137242;27;20439;-84
2022/05/11 01:58:23;;;;;;;32.27;23.10;;;13.50;99.90;;;;;;5136514;27;20949;-83
2022/05/11 02:00:50;;;;;;;27.20;20.83;;;13.50;99.90;;;;;;5127647;27;20436;-85
2022/05/11 02:03:20;;;;;;;30.53;21.00;;;13.50;99.90;;;;;;5128862;27;20733;-79
2022/05/11 02:08:36;;;;;;;30.73;21.60;;;13.60;99.90;;;;;;5130496;27;20455;-82
2022/05/11 02:11:04;;;;;;;28.40;20.53;;;13.50;99.90;;;;;;5129692;27;20437;-80
2022/05/11 02:13:34;;;;;;;25.80;19.40;;;13.50;99.90;;;;;;5129848;27;20436;-80
2022/05/11 02:16:02;;;;;;;25.63;21.00;;;13.60;99.90;;;;;;5129414;27;20837;-81
2022/05/11 02:18:30;;;;;;;25.40;20.60;;;13.60;99.90;;;;;;5130180;27;20448;-80
2022/05/11 02:20:59;;;;;;;23.73;19.93;;;13.50;99.90;;;;;;5128298;27;20444;-80
2022/05/11 02:23:27;;;;;;;24.87;19.40;;;13.60;99.90;;;;;;5127030;27;20475;-83
2022/05/11 02:25:55;;;;;;;24.03;19.07;;;13.60;99.90;;;;;;5127035;27;20999;-81
2022/05/11 02:28:23;;;;;;;23.83;17.63;;;13.60;99.90;;;;;;5127879;27;20444;-81
2022/05/11 02:30:56;;;;;;;29.43;19.40;;;13.60;99.90;;;;;;5129780;27;20474;-83
2022/05/11 02:33:25;;;;;;;26.13;20.50;;;13.60;99.90;;;;;;5129681;27;20444;-81
2022/05/11 02:35:54;;;;;;;23.40;18.77;;;13.60;99.90;;;;;;5128734;27;20449;-81
2022/05/11 02:38:26;;;;;;;25.10;18.13;;;13.60;99.90;;;;;;5127133;27;20974;-82
2022/05/11 02:40:55;;;;;;;27.70;20.00;;;13.60;99.90;;;;;;5128804;27;20866;-80
2022/05/11 02:43:23;;;;;;;24.10;19.90;;;13.50;99.90;;;;;;5127086;27;20679;-82
2022/05/11 02:45:54;;;;;;;23.87;17.67;;;13.50;99.90;;;;;;5138412;27;20998;-76
2022/05/11 02:48:24;;;;;;;25.20;19.67;;;13.50;99.90;;;;;;5140723;27;20700;-78
2022/05/11 02:50:55;;;;;;;21.57;17.63;;;13.50;99.90;;;;;;5139366;27;21054;-80
2022/05/11 02:53:25;;;;;;;25.57;22.17;;;13.50;99.90;;;;;;5142207;27;20432;-77
2022/05/11 02:55:55;;;;;;;21.07;18.37;;;13.50;99.90;;;;;;5136670;27;20632;-77
2022/05/11 02:58:25;;;;;;;23.87;18.47;;;13.50;99.90;;;;;;5128670;27;21119;-77
2022/05/11 03:00:59;;;;;;;23.43;19.60;;;13.40;99.90;;;;;;5129899;27;20524;-78
2022/05/11 03:03:33;;;;;;;21.83;17.50;;;13.40;99.90;;;;;;5127560;27;20504;-78
2022/05/11 03:06:03;;;;;;;24.87;18.50;;;13.40;99.90;;;;;;5130402;27;20623;-76
2022/05/11 03:08:31;;;;;;;22.83;17.70;;;13.50;99.90;;;;;;5137526;27;20444;-79
2022/05/11 03:10:59;;;;;;;19.87;17.17;;;13.50;99.90;;;;;;5136057;27;20429;-80
2022/05/11 03:13:27;;;;;;;22.87;16.77;;;13.50;99.90;;;;;;5134302;27;20464;-78
2022/05/11 03:15:56;;;;;;;21.93;19.40;;;13.50;99.90;;;;;;5133425;27;20443;-81
2022/05/11 03:18:24;;;;;;;23.17;18.50;;;13.60;99.90;;;;;;5135159;27;20425;-81
2022/05/11 03:20:56;;;;;;;21.43;17.07;;;13.60;99.90;;;;;;5134054;27;20432;-80
2022/05/11 03:23:25;;;;;;;20.60;17.17;;;13.60;99.90;;;;;;5132789;27;20471;-79
2022/05/11 03:25:53;;;;;;;23.27;18.97;;;13.60;99.90;;;;;;5129891;27;20468;-77
2022/05/11 03:28:21;;;;;;;23.50;18.97;;;13.60;99.90;;;;;;5128931;27;20637;-78
2022/05/11 03:30:49;;;;;;;20.53;17.00;;;13.60;99.90;;;;;;5126235;27;20935;-80
2022/05/11 03:36:04;;;;;;;22.77;17.80;;;13.60;99.90;;;;;;5125459;27;20459;-77
2022/05/11 03:38:32;;;;;;;20.47;17.30;;;13.60;99.90;;;;;;5124655;27;20440;-77
2022/05/11 03:41:00;;;;;;;23.33;18.27;;;13.60;99.90;;;;;;5125370;27;20658;-78
2022/05/11 03:43:29;;;;;;;23.63;17.90;;;13.60;99.90;;;;;;5123786;27;20440;-79
2022/05/11 03:45:59;;;;;;;19.60;17.50;;;13.60;99.90;;;;;;5123520;27;20879;-79
2022/05/11 03:48:28;;;;;;;18.90;16.07;;;13.70;99.90;;;;;;5125282;27;20871;-78
2022/05/11 03:50:57;;;;;;;22.33;16.00;;;13.60;99.90;;;;;;5125462;27;20439;-79
2022/05/11 03:53:25;;;;;;;19.70;17.20;;;13.70;99.90;;;;;;5124246;27;20793;-79
2022/05/11 03:55:53;;;;;;;19.83;17.63;;;13.70;99.90;;;;;;5123941;27;20795;-79
2022/05/11 03:58:20;;;;;;;20.57;17.07;;;13.70;99.90;;;;;;5124552;27;20937;-78
2022/05/11 04:00:53;;;;;;;21.03;17.93;;;13.70;99.90;;;;;;5125755;27;20908;-78
2022/05/11 04:03:21;;;;;;;18.40;16.50;;;13.70;99.90;;;;;;5126159;27;20535;-78
2022/05/11 04:05:50;;;;;;;17.73;16.00;;;13.70;99.90;;;;;;5144425;27;20584;-77
2022/05/11 04:08:18;;;;;;;19.27;16.30;;;13.70;99.90;;;;;;5138466;27;20506;-82
2022/05/11 04:10:46;;;;;;;19.40;17.23;;;13.70;99.90;;;;;;5134795;27;20461;-79
2022/05/11 04:13:14;;;;;;;18.43;16.40;;;13.80;99.90;;;;;;5137461;27;20839;-80
2022/05/11 04:15:42;;;;;;;19.77;16.30;;;13.80;99.90;;;;;;5136060;27;20752;-79
2022/05/11 04:18:10;;;;;;;18.57;16.53;;;13.80;99.90;;;;;;5134992;27;20492;-78
2022/05/11 04:20:38;;;;;;;20.77;17.90;;;13.90;99.90;;;;;;5137748;27;20529;-79
2022/05/11 04:23:07;;;;;;;17.47;15.57;;;13.90;99.90;;;;;;5131295;27;20460;-80
2022/05/11 04:25:35;;;;;;;17.73;15.80;;;13.80;99.90;;;;;;5133006;27;20476;-79
2022/05/11 04:28:03;;;;;;;17.27;15.37;;;13.90;99.90;;;;;;5133069;27;20468;-81
2022/05/11 04:30:31;;;;;;;19.03;17.00;;;13.90;99.90;;;;;;5131858;27;20435;-79
2022/05/11 04:32:59;;;;;;;19.23;16.67;;;13.90;99.90;;;;;;5134628;27;20520;-77
2022/05/11 04:35:30;;;;;;;18.03;15.17;;;13.90;99.90;;;;;;5130874;27;20563;-81
2022/05/11 04:37:58;;;;;;;19.90;17.90;;;14.00;99.90;;;;;;5129931;27;20452;-79
2022/05/11 04:40:28;;;;;;;18.10;16.20;;;14.00;99.90;;;;;;5129742;27;20967;-80
2022/05/11 04:42:56;;;;;;;18.63;16.70;;;14.00;99.90;;;;;;5129145;27;20505;-79
2022/05/11 04:45:25;;;;;;;21.10;16.20;;;14.00;99.90;;;;;;5130033;28;20499;-81
2022/05/11 04:47:52;;;;;;;19.20;15.60;;;14.10;99.90;;;;;;5125257;28;21043;-81
2022/05/11 04:50:20;;;;;;;17.80;15.90;;;14.10;99.90;;;;;;5132887;27;20536;-80
2022/05/11 04:52:48;;;;;;;18.67;16.07;;;14.10;99.90;;;;;;5132685;27;21042;-77
2022/05/11 04:55:16;;;;;;;17.43;15.63;;;14.20;99.90;;;;;;5130946;27;20444;-79
2022/05/11 04:57:45;;;;;;;19.63;15.40;;;14.20;99.90;;;;;;5126460;27;20940;-79
2022/05/11 05:00:15;;;;;;;16.90;15.20;;;14.20;99.90;;;;;;5123878;27;20559;-78
2022/05/11 05:02:43;;;;;;;21.60;16.10;;;14.20;99.90;;;;;;5119124;28;20452;-78
2022/05/11 05:05:12;;;;;;;17.83;16.03;;;14.30;99.90;;;;;;5120504;28;20985;-79
2022/05/11 05:07:41;;;;;;;20.00;16.03;;;14.30;99.90;;;;;;5126642;27;20783;-77
2022/05/11 05:10:13;;;;;;;19.70;17.60;;;14.40;99.90;;;;;;5127757;27;20799;-80
2022/05/11 05:12:41;;;;;;;23.70;19.40;;;14.40;99.90;;;;;;5121292;27;20616;-76
2022/05/11 05:15:12;;;;;;;18.77;16.77;;;14.50;99.90;;;;;;5125973;27;20437;-77
2022/05/11 05:17:42;;;;;;;19.77;16.40;;;14.50;99.90;;;;;;5118981;27;20442;-77
2022/05/11 05:20:15;;;;;;;18.20;16.30;;;14.50;99.90;;;;;;5122413;27;20753;-78
2022/05/11 05:22:43;;;;;;;17.67;15.87;;;14.60;99.90;;;;;;5120449;28;20470;-80
2022/05/11 05:25:12;;;;;;;17.30;15.10;;;14.60;99.90;;;;;;5121074;27;20453;-79
2022/05/11 05:27:40;;;;;;;16.60;15.00;;;14.70;99.90;;;;;;5121921;27;20482;-79
2022/05/11 05:33:00;;;;;;;19.83;17.70;;;14.70;99.90;;;;;;5124527;27;20507;-77
2022/05/11 05:35:28;;;;;;;16.50;14.40;;;14.80;99.90;;;;;;5128792;27;20936;-77
2022/05/11 05:37:56;;;;;;;16.47;13.77;;;14.80;99.90;;;;;;5128987;27;20973;-76
2022/05/11 05:40:24;;;;;;;16.00;14.07;;;14.90;99.90;;;;;;5129105;27;20458;-75
2022/05/11 05:42:52;;;;;;;22.30;18.30;;;15.00;99.90;;;;;;5128162;27;20460;-77
2022/05/11 05:45:22;;;;;;;18.23;15.57;;;15.00;99.90;;;;;;5141909;27;20606;-77
2022/05/11 05:47:50;;;;;;;23.57;14.60;;;15.10;99.90;;;;;;5143858;27;20472;-77
2022/05/11 05:50:18;;;;;;;31.33;19.90;;;15.10;99.90;;;;;;5143373;27;20417;-79
2022/05/11 05:52:49;;;;;;;37.50;19.37;;;15.10;99.90;;;;;;5143298;27;20479;-80
2022/05/11 05:55:19;;;;;;;36.03;20.07;;;15.10;99.90;;;;;;5136846;27;20948;-79
2022/05/11 05:57:48;;;;;;;34.27;19.80;;;15.10;99.90;;;;;;5130543;27;20427;-78
2022/05/11 06:00:17;;;;;;;29.67;19.73;;;15.10;99.90;;;;;;5133459;27;20689;-78
2022/05/11 06:02:46;;;;;;;31.50;18.77;;;15.10;99.90;;;;;;5115170;28;20927;-77
2022/05/11 06:05:15;;;;;;;25.83;17.80;;;15.10;99.90;;;;;;5111146;27;20441;-75
2022/05/11 06:07:52;;;;;;;23.03;17.40;;;15.10;99.90;;;;;;5125964;27;20480;-80
2022/05/11 06:10:20;;;;;;;27.50;16.33;;;15.10;99.90;;;;;;5126637;27;20975;-80
2022/05/11 06:12:48;;;;;;;25.50;17.87;;;15.10;99.90;;;;;;5117742;27;20452;-82
2022/05/11 06:15:17;;;;;;;20.77;16.53;;;15.20;99.90;;;;;;5122349;27;20454;-82
2022/05/11 06:17:46;;;;;;;20.87;17.10;;;15.30;99.90;;;;;;5124261;27;20459;-76
2022/05/11 06:20:14;;;;;;;22.00;17.57;;;15.30;99.90;;;;;;5125122;27;20433;-76
2022/05/11 06:22:42;;;;;;;18.57;16.30;;;15.40;99.90;;;;;;5123348;27;20456;-77
2022/05/11 06:25:10;;;;;;;19.23;16.70;;;15.40;99.90;;;;;;5123358;27;20580;-77
2022/05/11 06:27:38;;;;;;;18.90;16.90;;;15.40;99.90;;;;;;5123419;27;20470;-77
2022/05/11 06:30:08;;;;;;;20.87;15.80;;;15.30;99.90;;;;;;5133058;27;20682;-77
2022/05/11 06:32:36;;;;;;;16.10;14.13;;;15.30;99.90;;;;;;5118890;27;20476;-77
2022/05/11 06:35:06;;;;;;;18.30;16.07;;;15.40;99.90;;;;;;5116655;27;20761;-77
2022/05/11 06:37:34;;;;;;;21.43;14.37;;;15.40;99.90;;;;;;5119314;27;20436;-77
2022/05/11 06:40:03;;;;;;;19.23;16.30;;;15.40;99.90;;;;;;5122018;27;20819;-78
2022/05/11 06:42:32;;;;;;;20.30;16.33;;;15.50;99.90;;;;;;5122492;27;20468;-77
2022/05/11 06:45:00;;;;;;;20.17;15.93;;;15.50;99.90;;;;;;5121598;27;20608;-77
2022/05/11 06:47:28;;;;;;;16.23;14.67;;;15.50;99.90;;;;;;5119428;27;20959;-79
2022/05/11 06:49:55;;;;;;;18.37;14.83;;;15.60;99.90;;;;;;5116080;27;20974;-78
2022/05/11 06:52:25;;;;;;;18.63;14.67;;;15.80;99.90;;;;;;5101734;28;20461;-78
2022/05/11 07:00:28;;;;;;;18.57;16.57;;;15.80;99.90;;;;;;5124827;27;20420;-80
2022/05/11 07:02:56;;;;;;;20.70;17.13;;;15.90;99.90;;;;;;5124541;27;20565;-79
2022/05/11 07:05:30;;;;;;;16.73;14.67;;;15.90;99.90;;;;;;5122849;27;20468;-79
2022/05/11 07:08:00;;;;;;;16.33;14.70;;;16.00;99.90;;;;;;5123927;27;20742;-78
2022/05/11 07:10:27;;;;;;;16.17;14.63;;;16.10;99.90;;;;;;5122897;27;20437;-78
2022/05/11 07:12:56;;;;;;;15.80;13.77;;;16.20;99.90;;;;;;5132190;27;20491;-77
2022/05/11 07:15:25;;;;;;;17.43;15.50;;;16.20;99.90;;;;;;5129609;27;20448;-77
2022/05/11 07:17:56;;;;;;;14.97;13.20;;;16.20;99.90;;;;;;5126150;27;20441;-77
2022/05/11 07:20:27;;;;;;;20.40;15.20;;;16.10;99.90;;;;;;5121695;27;20491;-77
2022/05/11 07:22:55;;;;;;;17.77;15.97;;;16.10;99.90;;;;;;5122315;27;20464;-73
2022/05/11 07:25:25;;;;;;;15.47;13.67;;;16.10;99.90;;;;;;5126523;27;20547;-78
2022/05/11 07:27:54;;;;;;;16.33;14.50;;;16.00;99.90;;;;;;5106605;28;20520;-79
2022/05/11 07:30:24;;;;;;;18.73;13.60;;;16.00;99.90;;;;;;5119692;27;20440;-79
2022/05/11 07:33:01;;;;;;;20.53;15.93;;;16.00;99.90;;;;;;5125723;27;20444;-78
2022/05/11 07:40:57;;;;;;;13.77;12.10;;;15.90;99.90;;;;;;5060758;28;20530;-92
2022/05/11 07:43:29;;;;;;;11.40;10.20;;;15.90;99.90;;;;;;5064938;28;20506;-94
2022/05/11 07:46:04;;;;;;;13.63;10.70;;;15.90;99.90;;;;;;5063725;28;20438;-92
2022/05/11 07:48:33;;;;;;;13.10;9.63;;;15.80;99.90;;;;;;5060582;28;20516;-91
2022/05/11 07:51:08;;;;;;;9.93;9.03;;;15.80;99.90;;;;;;5061072;28;20460;-91
2022/05/11 07:53:36;;;;;;;10.13;9.10;;;15.90;99.90;;;;;;5064723;28;20466;-92
2022/05/11 08:01:44;;;;;;;11.00;9.90;;;16.00;99.90;;;;;;5041376;28;20534;-90
2022/05/11 08:04:12;;;;;;;13.73;11.07;;;16.00;99.90;;;;;;5043902;28;20441;-92
2022/05/11 08:06:41;;;;;;;9.70;8.70;;;16.00;99.90;;;;;;5046590;28;20468;-93
2022/05/11 08:09:10;;;;;;;8.23;7.00;;;16.00;99.90;;;;;;5050993;28;20473;-91
2022/05/11 08:11:39;;;;;;;13.03;10.40;;;16.10;99.90;;;;;;5041338;28;20565;-92
2022/05/11 08:14:08;;;;;;;12.90;10.30;;;16.10;99.90;;;;;;5045423;28;20441;-92
2022/05/11 08:16:37;;;;;;;10.17;9.17;;;16.10;99.90;;;;;;5046405;28;20441;-91
2022/05/11 08:19:09;;;;;;;15.70;10.93;;;16.10;99.90;;;;;;5046789;28;20442;-91
2022/05/11 08:21:38;;;;;;;10.90;9.13;;;16.20;99.90;;;;;;5043464;28;20481;-93
2022/05/11 08:24:08;;;;;;;11.90;9.60;;;16.20;99.90;;;;;;5043015;28;20515;-92
2022/05/11 08:26:36;;;;;;;11.30;10.20;;;16.30;99.90;;;;;;5044070;28;20452;-93
2022/05/11 08:29:06;;;;;;;9.20;8.30;;;16.30;99.90;;;;;;5054614;28;20464;-91
2022/05/11 08:34:23;;;;;;;8.37;7.57;;;16.50;99.90;;;;;;5073482;28;20546;-92
2022/05/11 08:36:51;;;;;;;8.80;7.63;;;16.60;99.90;;;;;;5068791;28;20455;-92
2022/05/11 08:39:20;;;;;;;8.70;7.80;;;16.70;99.90;;;;;;5059966;28;20504;-90
2022/05/11 08:41:51;;;;;;;10.60;8.47;;;16.80;99.90;;;;;;5059312;28;20488;-91
2022/05/11 08:44:23;;;;;;;11.07;9.97;;;16.90;99.90;;;;;;5057612;28;20495;-92
2022/05/11 08:47:02;;;;;;;9.77;8.87;;;17.00;99.90;;;;;;5057747;28;20457;-91
2022/05/11 08:49:47;;;;;;;11.23;10.20;;;17.00;99.90;;;;;;5057250;28;20469;-89
2022/05/11 08:52:40;;;;;;;12.37;10.17;;;17.10;99.90;;;;;;5057710;28;20457;-91
2022/05/11 08:55:11;;;;;;;9.30;8.47;;;17.10;99.90;;;;;;5055945;28;20479;-92
2022/05/11 08:57:41;;;;;;;12.97;9.87;;;17.10;99.90;;;;;;5059747;28;20459;-91
2022/05/11 09:00:15;;;;;;;9.90;8.90;;;17.00;99.90;;;;;;5057117;28;20522;-91
2022/05/11 09:02:48;;;;;;;10.20;9.30;;;17.10;99.90;;;;;;5058778;28;20512;-91
2022/05/11 09:05:26;;;;;;;10.50;9.20;;;17.10;99.90;;;;;;5064279;28;20449;-91
2022/05/11 09:07:59;;;;;;;9.70;8.80;;;17.30;99.90;;;;;;5060583;28;20511;-91
2022/05/11 09:10:34;;;;;;;9.73;8.93;;;17.40;99.90;;;;;;5066890;28;20469;-90
2022/05/11 09:13:13;;;;;;;10.30;8.40;;;17.50;99.90;;;;;;5070358;28;20556;-92
2022/05/11 09:15:56;;;;;;;17.47;9.10;;;17.70;99.90;;;;;;5063983;28;20470;-93
2022/05/11 09:18:39;;;;;;;10.63;8.13;;;17.80;99.90;;;;;;5062965;28;20437;-92
2022/05/11 09:21:19;;;;;;;10.70;9.60;;;17.90;99.90;;;;;;5060728;28;20471;-92
2022/05/11 09:24:02;;;;;;;10.80;8.80;;;18.10;99.90;;;;;;5060880;28;20445;-92
2022/05/11 09:26:33;;;;;;;8.33;7.47;;;18.20;99.90;;;;;;5059022;28;20430;-91
2022/05/11 09:29:31;;;;;;;9.33;8.33;;;18.20;99.90;;;;;;5043642;28;20486;-91
2022/05/11 09:32:32;;;;;;;13.27;9.53;;;18.40;99.90;;;;;;5046736;28;20585;-92
2022/05/11 09:35:26;;;;;;;9.37;8.47;;;18.70;99.90;;;;;;5047696;28;20642;-91
2022/05/11 09:38:05;;;;;;;10.53;8.63;;;19.00;99.90;;;;;;5040127;28;20480;-91
2022/05/11 09:40:51;;;;;;;9.67;8.37;;;19.20;99.90;;;;;;5037674;28;21057;-91
2022/05/11 09:43:33;;;;;;;9.00;7.77;;;19.10;99.90;;;;;;5038164;28;20535;-90
2022/05/11 09:46:14;;;;;;;8.77;7.97;;;19.20;99.90;;;;;;5037187;28;20972;-90
2022/05/11 09:48:58;;;;;;;9.47;8.50;;;19.30;99.90;;;;;;5036986;28;20491;-88
2022/05/11 09:51:30;;;;;;;9.27;8.33;;;19.10;99.90;;;;;;5037671;28;20468;-89
2022/05/11 09:54:07;;;;;;;11.53;9.30;;;19.00;99.90;;;;;;5036884;28;21085;-89
2022/05/11 09:56:56;;;;;;;10.57;9.13;;;19.00;99.90;;;;;;5042332;28;20447;-90
2022/05/11 09:59:27;;;;;;;8.70;8.00;;;18.80;99.90;;;;;;5038336;28;20451;-91
2022/05/11 10:02:02;;;;;;;7.43;6.83;;;18.80;99.90;;;;;;5048229;28;20784;-89
2022/05/11 10:04:50;;;;;;;10.30;8.47;;;19.00;99.90;;;;;;5051229;28;20521;-94
2022/05/11 12:52:02;;;;;;;9.43;6.13;;;21.90;99.90;;;;;;5017889;23;20717;-73
2022/05/11 12:54:31;;;;;;;7.00;6.30;;;22.10;99.90;;;;;;4959460;28;20542;-73
2022/05/11 12:57:02;;;;;;;8.70;5.80;;;22.10;99.90;;;;;;4953000;28;20737;-72
2022/05/11 12:59:32;;;;;;;5.87;5.10;;;22.30;99.90;;;;;;4952973;28;20958;-74
2022/05/11 13:02:14;;;;;;;5.20;4.70;;;22.40;99.90;;;;;;4950206;28;20473;-72
2022/05/11 13:04:54;;;;;;;6.87;4.83;;;22.50;99.90;;;;;;4940313;28;21079;-72
2022/05/11 13:07:27;;;;;;;4.10;3.80;;;22.60;99.90;;;;;;4940153;28;20980;-73
2022/05/11 13:17:27;;;;;;;4.13;3.83;;;22.80;99.90;;;;;;4922579;28;20470;-76
2022/05/11 13:19:57;;;;;;;4.47;3.70;;;22.80;99.90;;;;;;4921582;28;21258;-73
2022/05/11 13:22:29;;;;;;;4.87;3.90;;;22.70;99.90;;;;;;4931304;28;21123;-73
2022/05/11 13:25:00;;;;;;;4.63;3.97;;;22.70;99.90;;;;;;4960787;28;20540;-73
2022/05/11 13:27:35;;;;;;;5.23;4.10;;;22.70;99.90;;;;;;4960704;28;20448;-73
2022/05/11 13:30:34;;;;;;;4.23;3.83;;;22.50;99.90;;;;;;4928257;28;20488;-73
2022/05/11 13:33:41;;;;;;;6.23;3.73;;;22.40;99.90;;;;;;4949284;28;21007;-72
2022/05/11 13:36:21;;;;;;;5.50;4.03;;;22.50;99.90;;;;;;4941910;28;20606;-73
2022/05/11 13:38:53;;;;;;;4.20;3.87;;;22.60;99.90;;;;;;4942153;28;20592;-73
2022/05/11 13:41:25;;;;;;;3.80;3.27;;;22.70;99.90;;;;;;4942737;28;20462;-72
2022/05/11 13:43:56;;;;;;;4.80;3.70;;;22.90;99.90;;;;;;4958860;28;20473;-71
2022/05/11 13:46:35;;;;;;;4.83;3.67;;;22.90;99.90;;;;;;4948954;28;20824;-69
2022/05/11 13:49:22;;;;;;;6.97;3.60;;;22.90;99.90;;;;;;4947132;28;20950;-69
2022/05/11 13:51:50;;;;;;;5.17;2.40;;;23.00;99.90;;;;;;4962994;28;20909;-70
2022/05/11 13:54:24;;;;;;;5.93;5.23;;;23.10;99.90;;;;;;4962889;28;20494;-69
2022/05/11 13:57:01;;;;;;;6.23;3.50;;;23.20;99.90;;;;;;4960809;28;20459;-70
2022/05/11 13:59:29;;;;;;;5.30;3.23;;;23.20;99.90;;;;;;4963840;28;20443;-69
2022/05/11 14:01:59;;;;;;;4.03;3.83;;;23.20;99.90;;;;;;4969131;28;20541;-69
2022/05/11 14:04:32;;;;;;;3.33;2.47;;;23.20;99.90;;;;;;4965382;28;20822;-69
2022/05/11 14:07:04;;;;;;;3.40;3.13;;;23.30;99.90;;;;;;4964927;28;20562;-69
2022/05/11 14:09:35;;;;;;;6.00;3.80;;;23.50;99.90;;;;;;4946479;28;20462;-70
2022/05/11 14:12:04;;;;;;;3.67;3.47;;;23.70;99.90;;;;;;4945075;28;20469;-70
2022/05/11 14:14:32;;;;;;;4.77;2.70;;;23.70;99.90;;;;;;4945859;28;20556;-71
2022/05/11 14:17:08;;;;;;;3.37;3.07;;;23.80;99.90;;;;;;4946625;28;20493;-70
2022/05/11 14:19:39;;;;;;;3.53;3.17;;;23.90;99.90;;;;;;4957981;28;20483;-71
2022/05/11 14:22:08;;;;;;;4.07;3.27;;;23.90;99.90;;;;;;4956177;28;20500;-70
2022/05/11 14:24:39;;;;;;;7.00;4.57;;;23.80;99.90;;;;;;4961987;28;20719;-70
2022/05/11 14:27:07;;;;;;;5.17;3.77;;;23.70;99.90;;;;;;4968467;28;20545;-70
2022/05/11 14:29:35;;;;;;;4.07;3.00;;;23.70;99.90;;;;;;4942564;28;20475;-70
2022/05/11 14:32:07;;;;;;;3.30;2.50;;;23.70;99.90;;;;;;4944681;28;21038;-70
2022/05/11 14:34:35;;;;;;;3.13;2.47;;;23.80;99.90;;;;;;4958070;28;20458;-71
2022/05/11 14:37:03;;;;;;;3.60;3.00;;;24.00;99.90;;;;;;4944826;28;20743;-70
2022/05/11 14:39:31;;;;;;;5.90;3.00;;;24.00;99.90;;;;;;4943429;28;20472;-70
2022/05/11 14:42:00;;;;;;;4.53;2.77;;;24.00;99.90;;;;;;4952171;28;20528;-69
2022/05/11 14:44:30;;;;;;;6.40;2.87;;;23.80;99.90;;;;;;4954376;28;20456;-69
2022/05/11 14:47:18;;;;;;;3.17;2.50;;;23.70;99.90;;;;;;4949622;28;20464;-68
2022/05/11 14:49:46;;;;;;;3.00;2.60;;;23.60;99.90;;;;;;4947095;28;20493;-69
2022/05/11 14:52:14;;;;;;;3.83;3.20;;;23.50;99.90;;;;;;4956387;28;20490;-79
2022/05/11 14:54:42;;;;;;;5.40;2.53;;;23.40;99.90;;;;;;4953714;28;20489;-73
2022/05/11 15:02:43;;;;;;;3.70;2.73;;;23.60;99.90;;;;;;4960883;28;20913;-73
2022/05/11 15:05:14;;;;;;;2.83;2.17;;;23.70;99.90;;;;;;4945942;28;20539;-72
2022/05/11 15:07:44;;;;;;;4.70;2.67;;;23.60;99.90;;;;;;4943996;28;20458;-71
2022/05/11 15:10:12;;;;;;;3.10;2.40;;;23.60;99.90;;;;;;4960403;28;20500;-71
2022/05/11 15:15:35;;;;;;;2.80;2.43;;;23.60;99.90;;;;;;4936841;28;20837;-71
2022/05/11 15:18:08;;;;;;;8.03;2.70;;;23.70;99.90;;;;;;4942176;28;20762;-71
2022/05/11 15:20:35;;;;;;;2.30;2.13;;;23.70;99.80;;;;;;4949873;28;21065;-71
2022/05/11 15:23:03;;;;;;;4.40;2.40;;;23.70;99.10;;;;;;4943338;28;20769;-71
2022/05/11 15:25:31;;;;;;;6.93;2.60;;;23.70;99.30;;;;;;4943877;28;21025;-70
2022/05/11 15:28:01;;;;;;;4.20;2.47;;;23.70;98.50;;;;;;4948481;28;20439;-74
2022/05/11 15:30:29;;;;;;;4.10;2.30;;;23.60;99.00;;;;;;4947939;28;20585;-72
2022/05/11 15:32:58;;;;;;;4.73;2.10;;;23.50;99.30;;;;;;4952182;28;20465;-71
2022/05/11 15:35:28;;;;;;;2.13;1.80;;;23.50;99.20;;;;;;4944025;28;20452;-71
2022/05/11 15:37:56;;;;;;;4.07;1.80;;;23.50;99.60;;;;;;4951798;28;20957;-71
2022/05/11 15:40:28;;;;;;;2.23;2.07;;;23.70;99.20;;;;;;4941497;28;20478;-71
2022/05/11 15:43:06;;;;;;;3.93;2.10;;;23.80;99.40;;;;;;4948503;28;20458;-71
2022/05/11 15:45:54;;;;;;;4.73;2.27;;;23.80;99.30;;;;;;4947535;28;21066;-71
2022/05/11 15:48:22;;;;;;;4.30;2.20;;;23.60;98.80;;;;;;4947961;28;20488;-71
2022/05/11 15:50:49;;;;;;;6.50;2.77;;;23.50;99.30;;;;;;4957333;28;20498;-71
2022/05/11 15:53:21;;;;;;;7.13;3.30;;;23.40;99.90;;;;;;4944432;28;20959;-71
2022/05/11 15:55:50;;;;;;;5.20;2.83;;;23.30;99.90;;;;;;4948310;28;20549;-71
2022/05/11 15:58:19;;;;;;;9.17;2.50;;;23.20;99.90;;;;;;4955766;28;20446;-71
2022/05/11 16:00:48;;;;;;;7.93;2.80;;;23.20;99.90;;;;;;4942671;28;20482;-71
2022/05/11 16:03:17;;;;;;;6.83;3.57;;;23.10;99.90;;;;;;4947606;28;20545;-71
2022/05/11 16:05:47;;;;;;;4.53;2.63;;;23.00;99.90;;;;;;4957173;28;20442;-71
2022/05/11 16:08:15;;;;;;;4.93;2.93;;;22.70;99.90;;;;;;4939437;28;20551;-72
2022/05/11 16:10:43;;;;;;;5.10;2.83;;;22.50;99.90;;;;;;4940318;28;20478;-72
2022/05/11 16:13:11;;;;;;;7.13;3.13;;;22.30;99.90;;;;;;4942888;28;20470;-72
2022/05/11 16:15:40;;;;;;;4.67;3.17;;;22.00;99.90;;;;;;4941758;28;20480;-72
2022/05/11 16:20:56;;;;;;;4.77;3.03;;;22.00;99.90;;;;;;4941529;28;20980;-72
2022/05/11 16:23:30;;;;;;;8.13;3.63;;;21.90;99.90;;;;;;4942321;28;20726;-75